createdAt,value
2018-11-21T00:00:16.103Z,0.00
2018-11-21T00:01:16.115Z,0.00
2018-11-21T00:02:16.121Z,0.00
2018-11-21T00:03:16.132Z,0.00
2018-11-21T00:04:16.136Z,0.00
2018-11-21T00:05:16.142Z,0.00
2018-11-21T00:06:16.154Z,0.00
2018-11-21T00:07:16.158Z,0.00
2018-11-21T00:08:16.190Z,0.00
2018-11-21T00:09:16.172Z,4.00
2018-11-21T00:10:16.184Z,4.00
2018-11-21T00:11:16.188Z,0.00
2018-11-21T00:12:16.199Z,0.00
2018-11-21T00:13:16.208Z,0.00
2018-11-21T00:14:16.319Z,0.00
2018-11-21T00:15:16.267Z,0.00
2018-11-21T00:16:16.294Z,0.00
2018-11-21T00:17:16.231Z,0.00
2018-11-21T00:18:16.250Z,0.00
2018-11-21T00:19:16.267Z,0.00
2018-11-21T00:20:16.253Z,4.00
2018-11-21T00:21:16.263Z,0.00
2018-11-21T00:22:16.270Z,0.00
2018-11-21T00:23:16.285Z,4.00
2018-11-21T00:24:16.291Z,0.00
2018-11-21T00:25:16.476Z,4.00
2018-11-21T00:26:16.305Z,4.00
2018-11-21T00:27:16.309Z,0.00
2018-11-21T00:28:16.388Z,4.00
2018-11-21T00:29:16.324Z,4.00
2018-11-21T00:30:16.452Z,4.00
2018-11-21T00:31:16.338Z,4.00
2018-11-21T00:32:16.348Z,4.00
2018-11-21T00:33:16.353Z,4.00
2018-11-21T00:34:16.361Z,4.00
2018-11-21T00:35:16.372Z,4.00
2018-11-21T00:36:16.376Z,4.00
2018-11-21T00:37:16.383Z,4.00
2018-11-21T00:38:16.391Z,0.00
2018-11-21T00:39:16.397Z,4.00
2018-11-21T00:40:16.410Z,4.00
2018-11-21T00:42:16.422Z,0.00
2018-11-21T00:43:16.433Z,4.00
2018-11-21T00:44:16.444Z,0.00
2018-11-21T00:45:16.449Z,4.00
2018-11-21T00:46:16.454Z,0.00
2018-11-21T00:47:16.460Z,0.00
2018-11-21T00:48:16.467Z,0.00
2018-11-21T00:49:16.481Z,0.00
2018-11-21T00:50:16.479Z,4.00
2018-11-21T00:51:16.579Z,0.00
2018-11-21T00:52:16.496Z,0.00
2018-11-21T00:53:16.512Z,0.00
2018-11-21T00:54:16.513Z,0.00
2018-11-21T00:55:16.521Z,4.00
2018-11-21T00:56:16.527Z,0.00
2018-11-21T00:57:16.535Z,4.00
2018-11-21T00:58:16.542Z,0.00
2018-11-21T00:59:16.547Z,0.00
2018-11-21T01:00:16.561Z,0.00
2018-11-21T01:01:16.565Z,0.00
2018-11-21T01:02:16.582Z,0.00
2018-11-21T01:03:16.587Z,0.00
2018-11-21T01:04:16.584Z,0.00
2018-11-21T01:05:16.595Z,0.00
2018-11-21T01:06:16.606Z,0.00
2018-11-21T01:07:16.606Z,0.00
2018-11-21T01:08:16.648Z,0.00
2018-11-21T01:09:16.626Z,0.00
2018-11-21T01:10:16.629Z,0.00
2018-11-21T01:11:16.636Z,0.00
2018-11-21T01:12:16.656Z,0.00
2018-11-21T01:13:16.659Z,0.00
2018-11-21T01:14:16.763Z,4.00
2018-11-21T01:16:16.783Z,4.00
2018-11-21T01:17:16.734Z,4.00
2018-11-21T01:18:16.843Z,4.00
2018-11-21T01:19:16.715Z,4.00
2018-11-21T01:20:16.704Z,4.00
2018-11-21T01:21:16.709Z,4.00
2018-11-21T01:22:16.745Z,4.00
2018-11-21T01:23:16.732Z,0.00
2018-11-21T01:24:16.733Z,0.00
2018-11-21T01:25:16.763Z,0.00
2018-11-21T01:26:16.758Z,0.00
2018-11-21T01:27:16.754Z,0.00
2018-11-21T01:28:16.760Z,0.00
2018-11-21T01:29:16.769Z,0.00
2018-11-21T01:30:16.778Z,0.00
2018-11-21T01:31:16.786Z,0.00
2018-11-21T01:32:16.791Z,0.00
2018-11-21T01:33:16.798Z,0.00
2018-11-21T01:34:16.806Z,0.00
2018-11-21T01:35:16.817Z,0.00
2018-11-21T01:36:16.822Z,4.00
2018-11-21T01:37:16.833Z,0.00
2018-11-21T01:38:16.834Z,0.00
2018-11-21T01:39:16.844Z,0.00
2018-11-21T01:40:16.851Z,0.00
2018-11-21T01:41:16.860Z,4.00
2018-11-21T01:42:16.865Z,0.00
2018-11-21T01:43:16.876Z,4.00
2018-11-21T01:44:16.882Z,0.00
2018-11-21T01:45:16.890Z,4.00
2018-11-21T01:47:16.925Z,0.00
2018-11-21T01:48:16.916Z,0.00
2018-11-21T01:49:16.922Z,0.00
2018-11-21T01:50:16.924Z,0.00
2018-11-21T01:51:16.930Z,0.00
2018-11-21T01:52:16.946Z,0.00
2018-11-21T01:53:16.994Z,0.00
2018-11-21T01:54:17.026Z,0.00
2018-11-21T01:55:16.960Z,0.00
2018-11-21T01:56:16.966Z,0.00
2018-11-21T01:57:16.976Z,0.00
2018-11-21T01:58:16.983Z,0.00
2018-11-21T01:59:16.990Z,0.00
2018-11-21T02:00:17.013Z,0.00
2018-11-21T02:01:17.005Z,0.00
2018-11-21T02:02:17.012Z,0.00
2018-11-21T02:03:17.169Z,0.00
2018-11-21T02:04:17.028Z,0.00
2018-11-21T02:05:17.034Z,0.00
2018-11-21T02:06:17.043Z,0.00
2018-11-21T02:07:17.047Z,0.00
2018-11-21T02:08:17.056Z,0.00
2018-11-21T02:09:17.070Z,0.00
2018-11-21T02:10:17.080Z,0.00
2018-11-21T02:11:17.078Z,0.00
2018-11-21T02:12:17.086Z,0.00
2018-11-21T02:13:17.109Z,0.00
2018-11-21T02:14:17.150Z,0.00
2018-11-21T02:15:17.143Z,0.00
2018-11-21T02:16:17.114Z,0.00
2018-11-21T02:17:17.126Z,0.00
2018-11-21T02:18:17.133Z,0.00
2018-11-21T02:19:17.138Z,0.00
2018-11-21T02:20:17.150Z,0.00
2018-11-21T02:21:17.209Z,0.00
2018-11-21T02:22:17.160Z,0.00
2018-11-21T02:23:17.169Z,0.00
2018-11-21T02:24:17.179Z,0.00
2018-11-21T02:25:17.184Z,0.00
2018-11-21T02:26:17.191Z,0.00
2018-11-21T02:27:17.196Z,0.00
2018-11-21T02:28:17.209Z,0.00
2018-11-21T02:29:17.215Z,0.00
2018-11-21T02:30:17.226Z,0.00
2018-11-21T02:31:17.225Z,0.00
2018-11-21T02:32:17.235Z,0.00
2018-11-21T02:33:17.243Z,0.00
2018-11-21T02:34:17.248Z,0.00
2018-11-21T02:35:17.256Z,0.00
2018-11-21T02:36:17.260Z,0.00
2018-11-21T02:37:17.272Z,0.00
2018-11-21T02:38:17.292Z,0.00
2018-11-21T02:39:17.290Z,0.00
2018-11-21T02:40:17.294Z,0.00
2018-11-21T02:41:17.301Z,0.00
2018-11-21T02:42:17.341Z,0.00
2018-11-21T02:43:17.319Z,0.00
2018-11-21T02:44:17.339Z,0.00
2018-11-21T02:45:17.335Z,0.00
2018-11-21T02:46:17.706Z,0.00
2018-11-21T02:47:17.345Z,0.00
2018-11-21T02:48:17.353Z,0.00
2018-11-21T02:49:17.368Z,0.00
2018-11-21T02:50:17.371Z,0.00
2018-11-21T02:51:17.379Z,0.00
2018-11-21T02:52:17.734Z,0.00
2018-11-21T02:53:17.391Z,0.00
2018-11-21T02:54:17.396Z,0.00
2018-11-21T02:56:17.511Z,0.00
2018-11-21T02:57:17.420Z,0.00
2018-11-21T02:58:17.431Z,0.00
2018-11-21T03:00:17.543Z,0.00
2018-11-21T03:01:17.453Z,0.00
2018-11-21T03:02:17.459Z,0.00
2018-11-21T03:03:17.466Z,0.00
2018-11-21T03:04:17.479Z,0.00
2018-11-21T03:05:17.483Z,0.00
2018-11-21T03:06:17.490Z,0.00
2018-11-21T03:07:17.496Z,0.00
2018-11-21T03:08:17.503Z,0.00
2018-11-21T03:09:17.512Z,0.00
2018-11-21T03:10:17.520Z,0.00
2018-11-21T03:11:17.527Z,0.00
2018-11-21T03:12:17.531Z,0.00
2018-11-21T03:13:17.546Z,0.00
2018-11-21T03:14:17.606Z,0.00
2018-11-21T03:15:17.565Z,0.00
2018-11-21T03:16:17.570Z,0.00
2018-11-21T03:17:17.567Z,0.00
2018-11-21T03:18:17.581Z,0.00
2018-11-21T03:19:17.585Z,0.00
2018-11-21T03:20:17.586Z,0.00
2018-11-21T03:21:17.595Z,0.00
2018-11-21T03:22:17.951Z,0.00
2018-11-21T03:23:17.613Z,0.00
2018-11-21T03:24:17.619Z,0.00
2018-11-21T03:25:17.630Z,0.00
2018-11-21T03:26:17.641Z,0.00
2018-11-21T03:27:17.640Z,0.00
2018-11-21T03:28:17.648Z,0.00
2018-11-21T03:29:17.661Z,0.00
2018-11-21T03:30:17.671Z,0.00
2018-11-21T03:31:17.670Z,0.00
2018-11-21T03:32:17.679Z,0.00
2018-11-21T03:33:17.686Z,0.00
2018-11-21T03:34:17.696Z,0.00
2018-11-21T03:35:17.703Z,0.00
2018-11-21T03:36:17.738Z,0.00
2018-11-21T03:37:17.717Z,0.00
2018-11-21T03:38:17.725Z,0.00
2018-11-21T03:39:17.731Z,0.00
2018-11-21T03:40:17.742Z,0.00
2018-11-21T03:41:17.746Z,0.00
2018-11-21T03:42:17.754Z,0.00
2018-11-21T03:43:17.775Z,0.00
2018-11-21T03:44:17.827Z,0.00
2018-11-21T03:45:17.784Z,0.00
2018-11-21T03:46:17.804Z,0.00
2018-11-21T03:47:17.791Z,0.00
2018-11-21T03:48:17.801Z,0.00
2018-11-21T03:49:17.807Z,0.00
2018-11-21T03:50:17.827Z,0.00
2018-11-21T03:51:17.825Z,0.00
2018-11-21T03:52:17.832Z,0.00
2018-11-21T03:53:17.839Z,0.00
2018-11-21T03:54:17.844Z,0.00
2018-11-21T03:55:17.900Z,0.00
2018-11-21T03:56:17.861Z,0.00
2018-11-21T03:57:17.867Z,0.00
2018-11-21T03:58:17.874Z,0.00
2018-11-21T03:59:17.885Z,0.00
2018-11-21T04:00:17.893Z,0.00
2018-11-21T04:01:17.898Z,0.00
2018-11-21T04:02:17.913Z,0.00
2018-11-21T04:03:17.911Z,0.00
2018-11-21T04:04:17.920Z,0.00
2018-11-21T04:05:17.935Z,0.00
2018-11-21T04:06:17.944Z,0.00
2018-11-21T04:07:17.950Z,0.00
2018-11-21T04:08:17.960Z,0.00
2018-11-21T04:09:17.961Z,0.00
2018-11-21T04:10:17.979Z,0.00
2018-11-21T04:11:17.974Z,0.00
2018-11-21T04:12:17.980Z,0.00
2018-11-21T04:13:18.338Z,0.00
2018-11-21T04:14:18.005Z,0.00
2018-11-21T04:15:18.004Z,0.00
2018-11-21T04:16:18.014Z,0.00
2018-11-21T04:17:18.017Z,0.00
2018-11-21T04:18:18.027Z,0.00
2018-11-21T04:19:18.287Z,0.00
2018-11-21T04:20:18.043Z,0.00
2018-11-21T04:21:18.051Z,0.00
2018-11-21T04:22:18.104Z,0.00
2018-11-21T04:23:18.111Z,0.00
2018-11-21T04:24:18.422Z,0.00
2018-11-21T04:26:18.089Z,0.00
2018-11-21T04:27:18.091Z,0.00
2018-11-21T04:28:18.100Z,0.00
2018-11-21T04:29:18.108Z,0.00
2018-11-21T04:30:18.117Z,0.00
2018-11-21T04:31:18.121Z,0.00
2018-11-21T04:32:18.128Z,0.00
2018-11-21T04:33:18.139Z,0.00
2018-11-21T04:34:18.145Z,0.00
2018-11-21T04:35:18.157Z,0.00
2018-11-21T04:36:18.158Z,0.00
2018-11-21T04:37:18.166Z,0.00
2018-11-21T04:38:18.176Z,0.00
2018-11-21T04:39:18.237Z,0.00
2018-11-21T04:40:18.195Z,0.00
2018-11-21T04:41:18.195Z,0.00
2018-11-21T04:42:18.206Z,0.00
2018-11-21T04:43:18.216Z,0.00
2018-11-21T04:44:18.220Z,0.00
2018-11-21T04:45:18.236Z,4.00
2018-11-21T04:46:18.235Z,4.00
2018-11-21T04:47:18.250Z,4.00
2018-11-21T04:48:18.248Z,4.00
2018-11-21T04:49:18.259Z,0.00
2018-11-21T04:50:18.266Z,0.00
2018-11-21T04:51:18.273Z,0.00
2018-11-21T04:52:18.288Z,0.00
2018-11-21T04:53:18.391Z,0.00
2018-11-21T04:54:18.351Z,4.00
2018-11-21T04:55:18.303Z,0.00
2018-11-21T04:56:18.307Z,0.00
2018-11-21T04:57:18.365Z,0.00
2018-11-21T04:58:18.354Z,0.00
2018-11-21T04:59:18.411Z,4.00
2018-11-21T05:00:18.342Z,0.00
2018-11-21T05:01:18.349Z,4.00
2018-11-21T05:02:18.361Z,0.00
2018-11-21T05:03:18.364Z,0.00
2018-11-21T05:04:18.371Z,0.00
2018-11-21T05:05:18.378Z,0.00
2018-11-21T05:06:18.443Z,0.00
2018-11-21T05:07:18.404Z,0.00
2018-11-21T05:08:18.400Z,0.00
2018-11-21T05:09:18.459Z,0.00
2018-11-21T05:10:18.415Z,0.00
2018-11-21T05:11:18.459Z,0.00
2018-11-21T05:12:18.433Z,0.00
2018-11-21T05:13:18.440Z,4.00
2018-11-21T05:14:18.447Z,0.00
2018-11-21T05:15:18.463Z,0.00
2018-11-21T05:16:18.462Z,0.00
2018-11-21T05:17:18.481Z,0.00
2018-11-21T05:18:18.483Z,0.00
2018-11-21T05:19:18.495Z,0.00
2018-11-21T05:20:18.492Z,0.00
2018-11-21T05:21:18.519Z,0.00
2018-11-21T05:22:18.508Z,0.00
2018-11-21T05:23:18.514Z,4.00
2018-11-21T05:24:18.523Z,0.00
2018-11-21T05:25:18.632Z,0.00
2018-11-21T05:26:18.544Z,0.00
2018-11-21T05:27:18.545Z,4.00
2018-11-21T05:28:18.557Z,4.00
2018-11-21T05:29:18.561Z,4.00
2018-11-21T05:30:18.573Z,4.00
2018-11-21T05:31:18.596Z,4.00
2018-11-21T05:32:18.586Z,4.00
2018-11-21T05:33:18.822Z,4.00
2018-11-21T05:34:18.602Z,4.00
2018-11-21T05:35:18.606Z,4.00
2018-11-21T05:36:18.617Z,4.00
2018-11-21T05:37:18.621Z,4.00
2018-11-21T05:38:18.645Z,4.00
2018-11-21T05:39:18.686Z,4.00
2018-11-21T05:40:18.651Z,4.00
2018-11-21T05:41:18.702Z,4.00
2018-11-21T05:42:18.662Z,4.00
2018-11-21T05:43:18.668Z,4.00
2018-11-21T05:44:18.673Z,4.00
2018-11-21T05:45:18.681Z,4.00
2018-11-21T05:46:18.691Z,4.00
2018-11-21T05:47:18.708Z,4.00
2018-11-21T05:48:18.704Z,4.00
2018-11-21T05:49:18.711Z,4.00
2018-11-21T05:50:18.722Z,4.00
2018-11-21T05:51:18.746Z,4.00
2018-11-21T05:52:18.781Z,4.00
2018-11-21T05:53:18.744Z,4.00
2018-11-21T05:54:18.761Z,4.00
2018-11-21T05:55:18.770Z,4.00
2018-11-21T05:56:18.779Z,4.00
2018-11-21T05:57:18.775Z,4.00
2018-11-21T05:58:18.793Z,4.00
2018-11-21T05:59:18.786Z,4.00
2018-11-21T06:00:18.846Z,4.00
2018-11-21T06:01:18.802Z,4.00
2018-11-21T06:02:18.821Z,4.00
2018-11-21T06:03:18.822Z,4.00
2018-11-21T06:04:18.824Z,4.00
2018-11-21T06:05:18.838Z,4.00
2018-11-21T06:06:18.840Z,4.00
2018-11-21T06:07:18.850Z,4.00
2018-11-21T06:08:18.865Z,4.00
2018-11-21T06:09:18.869Z,4.00
2018-11-21T06:10:18.874Z,4.00
2018-11-21T06:11:18.880Z,4.00
2018-11-21T06:12:18.886Z,4.00
2018-11-21T06:13:18.895Z,4.00
2018-11-21T06:14:18.905Z,4.00
2018-11-21T06:15:18.913Z,4.00
2018-11-21T06:16:18.923Z,4.00
2018-11-21T06:17:18.937Z,4.00
2018-11-21T06:18:18.933Z,4.00
2018-11-21T06:19:18.996Z,4.00
2018-11-21T06:20:18.948Z,4.00
2018-11-21T06:21:18.957Z,4.00
2018-11-21T06:22:18.966Z,4.00
2018-11-21T06:23:18.968Z,4.00
2018-11-21T06:24:18.989Z,4.00
2018-11-21T06:25:18.991Z,4.00
2018-11-21T06:26:18.996Z,4.00
2018-11-21T06:27:19.089Z,4.00
2018-11-21T06:28:19.016Z,4.00
2018-11-21T06:29:19.020Z,4.00
2018-11-21T06:30:19.025Z,4.00
2018-11-21T06:31:19.033Z,8.00
2018-11-21T06:32:19.038Z,4.00
2018-11-21T06:33:19.063Z,8.00
2018-11-21T06:34:19.064Z,4.00
2018-11-21T06:35:19.068Z,8.00
2018-11-21T06:36:19.072Z,8.00
2018-11-21T06:37:19.078Z,8.00
2018-11-21T06:38:19.096Z,8.00
2018-11-21T06:39:19.094Z,8.00
2018-11-21T06:40:19.098Z,8.00
2018-11-21T06:41:19.118Z,12.00
2018-11-21T06:42:19.126Z,16.00
2018-11-21T06:43:19.121Z,16.00
2018-11-21T06:44:19.131Z,16.00
2018-11-21T06:45:19.142Z,20.00
2018-11-21T06:46:19.150Z,24.00
2018-11-21T06:47:19.152Z,24.00
2018-11-21T06:48:19.162Z,28.00
2018-11-21T06:49:19.188Z,32.00
2018-11-21T06:50:19.175Z,36.00
2018-11-21T06:51:19.182Z,40.00
2018-11-21T06:52:22.246Z,40.00
2018-11-21T06:53:19.199Z,44.00
2018-11-21T06:54:19.208Z,52.00
2018-11-21T06:55:19.218Z,56.00
2018-11-21T06:56:19.222Z,60.00
2018-11-21T06:57:19.227Z,68.00
2018-11-21T06:58:19.249Z,76.00
2018-11-21T06:59:19.292Z,80.00
2018-11-21T07:00:19.272Z,84.00
2018-11-21T07:01:19.261Z,92.00
2018-11-21T07:02:19.269Z,100.00
2018-11-21T07:03:19.273Z,108.00
2018-11-21T07:04:19.333Z,116.00
2018-11-21T07:05:19.289Z,124.00
2018-11-21T07:06:19.297Z,132.00
2018-11-21T07:07:19.302Z,140.00
2018-11-21T07:08:19.312Z,148.00
2018-11-21T07:09:19.319Z,156.00
2018-11-21T07:10:20.171Z,168.00
2018-11-21T07:11:19.334Z,176.00
2018-11-21T07:12:19.356Z,188.00
2018-11-21T07:13:19.353Z,196.00
2018-11-21T07:14:19.353Z,204.00
2018-11-21T07:15:19.364Z,212.00
2018-11-21T07:16:19.396Z,224.00
2018-11-21T07:17:19.392Z,236.00
2018-11-21T07:18:19.414Z,244.00
2018-11-21T07:19:19.396Z,252.00
2018-11-21T07:20:19.400Z,264.00
2018-11-21T07:21:19.407Z,272.00
2018-11-21T07:22:19.422Z,284.00
2018-11-21T07:23:19.424Z,296.00
2018-11-21T07:24:19.437Z,308.00
2018-11-21T07:25:19.607Z,316.00
2018-11-21T07:26:20.007Z,324.00
2018-11-21T07:27:19.453Z,336.00
2018-11-21T07:28:19.496Z,348.00
2018-11-21T07:29:19.473Z,356.00
2018-11-21T07:30:19.475Z,372.00
2018-11-21T07:31:19.492Z,380.00
2018-11-21T07:32:19.494Z,388.00
2018-11-21T07:33:19.503Z,400.00
2018-11-21T07:34:19.568Z,408.00
2018-11-21T07:35:19.525Z,420.00
2018-11-21T07:36:19.531Z,432.00
2018-11-21T07:37:19.560Z,440.00
2018-11-21T07:38:19.536Z,448.00
2018-11-21T07:39:19.549Z,460.00
2018-11-21T07:40:19.553Z,468.00
2018-11-21T07:41:19.572Z,484.00
2018-11-21T07:42:19.578Z,496.00
2018-11-21T07:43:19.586Z,512.00
2018-11-21T07:44:19.581Z,520.00
2018-11-21T07:45:19.592Z,536.00
2018-11-21T07:46:19.597Z,552.00
2018-11-21T07:47:19.603Z,564.00
2018-11-21T07:48:20.524Z,572.00
2018-11-21T07:49:19.619Z,580.00
2018-11-21T07:50:19.632Z,592.00
2018-11-21T07:51:19.640Z,608.00
2018-11-21T07:52:19.725Z,612.00
2018-11-21T07:53:19.652Z,628.00
2018-11-21T07:54:19.658Z,632.00
2018-11-21T07:55:19.667Z,644.00
2018-11-21T07:56:19.677Z,660.00
2018-11-21T07:57:19.683Z,672.00
2018-11-21T07:58:19.688Z,684.00
2018-11-21T07:59:19.704Z,692.00
2018-11-21T08:00:19.847Z,704.00
2018-11-21T08:01:19.816Z,712.00
2018-11-21T08:02:19.744Z,724.00
2018-11-21T08:03:19.741Z,736.00
2018-11-21T08:04:19.739Z,748.00
2018-11-21T08:05:19.750Z,760.00
2018-11-21T08:06:19.747Z,776.00
2018-11-21T08:07:19.755Z,780.00
2018-11-21T08:08:19.768Z,800.00
2018-11-21T08:09:19.777Z,808.00
2018-11-21T08:10:19.779Z,820.00
2018-11-21T08:11:19.796Z,824.00
2018-11-21T08:12:19.796Z,836.00
2018-11-21T08:13:19.802Z,836.00
2018-11-21T08:14:19.836Z,848.00
2018-11-21T08:15:19.818Z,864.00
2018-11-21T08:16:19.833Z,872.00
2018-11-21T08:17:19.842Z,896.00
2018-11-21T08:18:19.842Z,908.00
2018-11-21T08:19:19.854Z,916.00
2018-11-21T08:20:19.861Z,936.00
2018-11-21T08:21:19.866Z,936.00
2018-11-21T08:22:19.874Z,944.00
2018-11-21T08:23:20.936Z,960.00
2018-11-21T08:24:20.130Z,980.00
2018-11-21T08:25:20.032Z,968.00
2018-11-21T08:26:19.905Z,984.00
2018-11-21T08:27:19.914Z,1016.00
2018-11-21T08:28:20.659Z,1028.00
2018-11-21T08:29:19.940Z,1044.00
2018-11-21T08:30:19.960Z,1056.00
2018-11-21T08:31:19.948Z,1072.00
2018-11-21T08:32:19.955Z,1080.00
2018-11-21T08:33:19.964Z,1080.00
2018-11-21T08:34:19.970Z,1092.00
2018-11-21T08:35:19.998Z,1112.00
2018-11-21T08:36:20.026Z,1112.00
2018-11-21T08:37:20.000Z,1108.00
2018-11-21T08:38:20.002Z,1128.00
2018-11-21T08:39:20.080Z,1176.00
2018-11-21T08:40:20.019Z,1172.00
2018-11-21T08:41:20.038Z,1176.00
2018-11-21T08:42:20.039Z,1184.00
2018-11-21T08:43:20.045Z,1212.00
2018-11-21T08:44:20.053Z,1216.00
2018-11-21T08:45:20.062Z,1224.00
2018-11-21T08:46:20.072Z,1236.00
2018-11-21T08:47:20.141Z,1248.00
2018-11-21T08:48:20.084Z,1212.00
2018-11-21T08:49:20.298Z,1260.00
2018-11-21T08:50:20.138Z,1272.00
2018-11-21T08:51:23.167Z,1260.00
2018-11-21T08:52:20.742Z,1264.00
2018-11-21T08:53:20.146Z,1248.00
2018-11-21T08:54:20.135Z,1272.00
2018-11-21T08:55:20.142Z,1288.00
2018-11-21T08:56:20.149Z,1208.00
2018-11-21T08:57:20.405Z,1300.00
2018-11-21T08:58:20.364Z,1228.00
2018-11-21T08:59:20.182Z,1348.00
2018-11-21T09:00:20.180Z,1344.00
2018-11-21T09:01:20.253Z,1328.00
2018-11-21T09:02:20.199Z,1356.00
2018-11-21T09:03:20.207Z,1360.00
2018-11-21T09:04:20.214Z,1348.00
2018-11-21T09:05:20.220Z,1296.00
2018-11-21T09:06:20.229Z,1304.00
2018-11-21T09:07:20.237Z,1160.00
2018-11-21T09:08:20.247Z,1272.00
2018-11-21T09:09:20.247Z,1248.00
2018-11-21T09:10:20.270Z,1224.00
2018-11-21T09:11:20.263Z,1308.00
2018-11-21T09:12:20.269Z,1464.00
2018-11-21T09:13:20.279Z,1428.00
2018-11-21T09:14:20.522Z,1500.00
2018-11-21T09:15:21.178Z,1556.00
2018-11-21T09:16:20.972Z,1540.00
2018-11-21T09:17:20.315Z,1500.00
2018-11-21T09:18:20.318Z,1408.00
2018-11-21T09:19:20.330Z,1692.00
2018-11-21T09:21:20.344Z,1644.00
2018-11-21T09:22:20.437Z,1568.00
2018-11-21T09:23:20.360Z,1476.00
2018-11-21T09:24:20.369Z,1476.00
2018-11-21T09:25:20.380Z,1788.00
2018-11-21T09:26:20.385Z,1580.00
2018-11-21T09:27:20.401Z,1528.00
2018-11-21T09:28:20.403Z,1580.00
2018-11-21T09:29:20.417Z,1660.00
2018-11-21T09:30:20.416Z,1608.00
2018-11-21T09:31:20.427Z,1704.00
2018-11-21T09:32:20.444Z,1528.00
2018-11-21T09:33:20.491Z,1432.00
2018-11-21T09:34:20.478Z,1392.00
2018-11-21T09:35:20.473Z,1464.00
2018-11-21T09:36:20.772Z,1424.00
2018-11-21T09:37:20.478Z,1572.00
2018-11-21T09:38:20.489Z,1472.00
2018-11-21T09:39:20.749Z,1456.00
2018-11-21T09:40:21.564Z,1404.00
2018-11-21T09:41:20.513Z,1388.00
2018-11-21T09:42:20.526Z,1356.00
2018-11-21T09:43:21.222Z,1288.00
2018-11-21T09:44:20.542Z,1352.00
2018-11-21T09:45:20.548Z,1368.00
2018-11-21T09:46:20.557Z,1448.00
2018-11-21T09:47:20.565Z,1572.00
2018-11-21T09:48:21.260Z,1572.00
2018-11-21T09:49:21.951Z,1584.00
2018-11-21T09:50:20.593Z,1568.00
2018-11-21T09:51:20.604Z,1536.00
2018-11-21T09:52:20.616Z,1508.00
2018-11-21T09:53:20.616Z,1456.00
2018-11-21T09:54:20.627Z,1360.00
2018-11-21T09:55:20.639Z,1308.00
2018-11-21T09:56:20.695Z,1356.00
2018-11-21T09:57:20.650Z,1468.00
2018-11-21T09:58:20.678Z,1560.00
2018-11-21T09:59:20.668Z,1668.00
2018-11-21T10:00:20.677Z,1664.00
2018-11-21T10:01:20.686Z,1644.00
2018-11-21T10:02:20.708Z,1592.00
2018-11-21T10:03:20.705Z,1400.00
2018-11-21T10:04:20.712Z,1288.00
2018-11-21T10:05:21.138Z,1344.00
2018-11-21T10:06:20.889Z,1356.00
2018-11-21T10:07:20.738Z,1320.00
2018-11-21T10:08:20.753Z,1240.00
2018-11-21T10:09:20.756Z,1112.00
2018-11-21T10:10:20.806Z,1080.00
2018-11-21T10:11:20.774Z,1252.00
2018-11-21T10:12:20.786Z,1356.00
2018-11-21T10:13:20.812Z,1376.00
2018-11-21T10:14:20.817Z,1396.00
2018-11-21T10:15:20.819Z,1500.00
2018-11-21T10:16:20.819Z,1556.00
2018-11-21T10:17:20.829Z,1584.00
2018-11-21T10:18:21.280Z,1752.00
2018-11-21T10:19:20.844Z,1644.00
2018-11-21T10:20:20.852Z,1236.00
2018-11-21T10:21:20.878Z,980.00
2018-11-21T10:22:20.875Z,980.00
2018-11-21T10:23:20.891Z,1100.00
2018-11-21T10:24:20.891Z,1176.00
2018-11-21T10:25:20.897Z,1396.00
2018-11-21T10:26:20.910Z,1536.00
2018-11-21T10:27:20.917Z,1440.00
2018-11-21T10:28:20.924Z,1028.00
2018-11-21T10:29:20.936Z,1088.00
2018-11-21T10:30:20.995Z,1204.00
2018-11-21T10:31:20.969Z,1376.00
2018-11-21T10:32:21.355Z,1596.00
2018-11-21T10:33:21.025Z,1876.00
2018-11-21T10:34:20.974Z,2052.00
2018-11-21T10:35:20.999Z,2008.00
2018-11-21T10:36:21.007Z,1604.00
2018-11-21T10:37:21.001Z,1120.00
2018-11-21T10:38:21.012Z,892.00
2018-11-21T10:39:21.021Z,932.00
2018-11-21T10:40:21.042Z,1384.00
2018-11-21T10:41:21.049Z,1796.00
2018-11-21T10:42:21.955Z,1824.00
2018-11-21T10:43:21.060Z,1568.00
2018-11-21T10:44:21.085Z,1248.00
2018-11-21T10:45:21.079Z,1408.00
2018-11-21T10:46:21.130Z,1600.00
2018-11-21T10:47:21.099Z,1676.00
2018-11-21T10:48:21.205Z,1640.00
2018-11-21T10:49:21.180Z,1856.00
2018-11-21T10:50:21.167Z,2032.00
2018-11-21T10:51:21.132Z,1944.00
2018-11-21T10:52:21.155Z,2196.00
2018-11-21T10:53:21.167Z,2288.00
2018-11-21T10:54:21.153Z,2168.00
2018-11-21T10:55:21.970Z,2048.00
2018-11-21T10:56:21.199Z,1976.00
2018-11-21T10:57:21.489Z,1828.00
2018-11-21T10:58:21.202Z,1728.00
2018-11-21T10:59:21.222Z,1652.00
2018-11-21T11:00:21.207Z,1604.00
2018-11-21T11:01:21.229Z,1612.00
2018-11-21T11:02:21.221Z,1652.00
2018-11-21T11:03:21.245Z,1724.00
2018-11-21T11:04:21.244Z,1848.00
2018-11-21T11:05:21.257Z,2032.00
2018-11-21T11:06:21.291Z,2180.00
2018-11-21T11:07:21.274Z,2120.00
2018-11-21T11:08:21.279Z,2012.00
2018-11-21T11:09:21.293Z,1884.00
2018-11-21T11:10:21.315Z,1560.00
2018-11-21T11:11:21.323Z,1572.00
2018-11-21T11:12:21.343Z,1808.00
2018-11-21T11:13:21.327Z,1864.00
2018-11-21T11:14:21.334Z,1756.00
2018-11-21T11:15:21.340Z,1644.00
2018-11-21T11:16:21.381Z,1528.00
2018-11-21T11:17:21.362Z,1376.00
2018-11-21T11:18:21.381Z,1476.00
2018-11-21T11:19:21.390Z,1588.00
2018-11-21T11:20:21.405Z,1512.00
2018-11-21T11:21:21.396Z,1356.00
2018-11-21T11:22:21.406Z,1408.00
2018-11-21T11:23:21.408Z,1460.00
2018-11-21T11:24:21.827Z,1360.00
2018-11-21T11:25:21.442Z,1416.00
2018-11-21T11:26:21.455Z,1640.00
2018-11-21T11:27:21.482Z,1736.00
2018-11-21T11:28:21.456Z,1708.00
2018-11-21T11:29:21.505Z,1640.00
2018-11-21T11:31:21.486Z,1588.00
2018-11-21T11:32:21.494Z,1656.00
2018-11-21T11:33:21.618Z,1680.00
2018-11-21T11:34:21.531Z,1548.00
2018-11-21T11:35:21.527Z,1212.00
2018-11-21T11:36:21.591Z,1060.00
2018-11-21T11:37:21.549Z,1068.00
2018-11-21T11:38:21.557Z,1124.00
2018-11-21T11:39:21.558Z,1120.00
2018-11-21T11:40:21.568Z,1048.00
2018-11-21T11:41:21.588Z,956.00
2018-11-21T11:42:21.586Z,892.00
2018-11-21T11:43:21.593Z,848.00
2018-11-21T11:44:21.608Z,832.00
2018-11-21T11:45:21.626Z,880.00
2018-11-21T11:46:21.630Z,932.00
2018-11-21T11:47:21.640Z,984.00
2018-11-21T11:48:21.639Z,1024.00
2018-11-21T11:49:21.650Z,1024.00
2018-11-21T11:50:21.668Z,1000.00
2018-11-21T11:51:21.666Z,976.00
2018-11-21T11:52:21.673Z,988.00
2018-11-21T11:53:21.686Z,1016.00
2018-11-21T11:54:21.698Z,1000.00
2018-11-21T11:55:21.707Z,996.00
2018-11-21T11:56:21.722Z,1004.00
2018-11-21T11:57:21.784Z,976.00
2018-11-21T11:58:21.728Z,976.00
2018-11-21T11:59:21.858Z,1000.00
2018-11-21T12:00:21.746Z,988.00
2018-11-21T12:01:21.757Z,1000.00
2018-11-21T12:02:21.763Z,1112.00
2018-11-21T12:03:21.958Z,1212.00
2018-11-21T12:04:21.781Z,1276.00
2018-11-21T12:05:21.816Z,1256.00
2018-11-21T12:06:22.250Z,1284.00
2018-11-21T12:07:21.840Z,1276.00
2018-11-21T12:08:22.291Z,1200.00
2018-11-21T12:09:21.827Z,1152.00
2018-11-21T12:10:21.835Z,1180.00
2018-11-21T12:11:22.479Z,1240.00
2018-11-21T12:12:22.090Z,1296.00
2018-11-21T12:13:21.988Z,1456.00
2018-11-21T12:14:21.879Z,1544.00
2018-11-21T12:16:21.905Z,1360.00
2018-11-21T12:17:21.905Z,1200.00
2018-11-21T12:18:22.443Z,1056.00
2018-11-21T12:19:21.928Z,1100.00
2018-11-21T12:20:22.636Z,1228.00
2018-11-21T12:21:21.943Z,1204.00
2018-11-21T12:22:22.826Z,1160.00
2018-11-21T12:23:21.957Z,1140.00
2018-11-21T12:24:21.973Z,1144.00
2018-11-21T12:25:21.992Z,1100.00
2018-11-21T12:26:21.986Z,1048.00
2018-11-21T12:27:21.997Z,980.00
2018-11-21T12:28:22.011Z,956.00
2018-11-21T12:29:22.558Z,896.00
2018-11-21T12:30:22.032Z,736.00
2018-11-21T12:31:22.077Z,680.00
2018-11-21T12:32:22.042Z,716.00
2018-11-21T12:33:22.063Z,752.00
2018-11-21T12:34:22.057Z,764.00
2018-11-21T12:35:22.204Z,732.00
2018-11-21T12:36:22.074Z,732.00
2018-11-21T12:37:22.084Z,752.00
2018-11-21T12:38:22.103Z,808.00
2018-11-21T12:39:22.114Z,844.00
2018-11-21T12:40:22.133Z,840.00
2018-11-21T12:41:22.150Z,804.00
2018-11-21T12:42:22.130Z,760.00
2018-11-21T12:43:22.140Z,724.00
2018-11-21T12:44:22.161Z,724.00
2018-11-21T12:45:22.164Z,716.00
2018-11-21T12:46:22.177Z,712.00
2018-11-21T12:47:22.179Z,696.00
2018-11-21T12:48:22.186Z,696.00
2018-11-21T12:50:22.291Z,732.00
2018-11-21T12:51:22.211Z,816.00
2018-11-21T12:52:22.226Z,912.00
2018-11-21T12:53:22.230Z,996.00
2018-11-21T12:54:22.280Z,980.00
2018-11-21T12:55:22.249Z,932.00
2018-11-21T12:56:22.322Z,828.00